Time;durP1;ratioP1;P1;durP2;ratioP2;P2;SDS_P1;SDS_P2;PMS_P1;PMS_P2;Temp;Humidity;BMP_temperature;BMP_pressure;BME280_temperature;BME280_humidity;BME280_pressure;Samples;Min_cycle;Max_cycle;Signal;HPM_P1;HPM_P2
2022/01/07 00:01:35;;;;;;;7.10;4.73;;;;;;;-3.46;100.00;94865.44;5065019;28;20656;-73
2022/01/07 00:04:02;;;;;;;10.37;4.40;;;;;;;-3.50;100.00;94875.31;5062274;28;20201;-74
2022/01/07 00:06:28;;;;;;;11.23;5.50;;;;;;;-3.03;100.00;94878.72;5066868;28;20209;-73
2022/01/07 00:08:54;;;;;;;7.83;4.77;;;;;;;-3.18;100.00;94887.00;5073463;28;20204;-73
2022/01/07 00:11:20;;;;;;;8.77;5.10;;;;;;;-3.15;100.00;94876.34;5069413;28;20624;-73
2022/01/07 00:13:45;;;;;;;7.90;5.10;;;;;;;-3.13;100.00;94876.75;5060183;28;20213;-73
2022/01/07 00:16:11;;;;;;;8.80;4.80;;;;;;;-3.29;100.00;94876.22;5057332;28;20706;-74
2022/01/07 00:18:41;;;;;;;12.33;4.83;;;;;;;-3.35;100.00;94876.94;5062113;28;20683;-73
2022/01/07 00:21:07;;;;;;;9.97;5.47;;;;;;;-2.78;100.00;94870.88;5076356;28;20194;-73
2022/01/07 00:23:33;;;;;;;5.77;4.57;;;;;;;-2.65;100.00;94870.19;5062675;28;20651;-73
2022/01/07 00:25:58;;;;;;;6.97;4.87;;;;;;;-2.42;100.00;94871.81;5065570;28;20663;-74
2022/01/07 00:28:25;;;;;;;7.37;5.63;;;;;;;-2.24;100.00;94853.97;5067903;28;20195;-73
2022/01/07 00:30:51;;;;;;;7.67;5.43;;;;;;;-2.33;100.00;94866.91;5041999;28;20193;-73
2022/01/07 00:33:17;;;;;;;8.80;4.90;;;;;;;-2.63;100.00;94849.19;5070621;28;20563;-73
2022/01/07 00:35:43;;;;;;;10.27;5.20;;;;;;;-2.70;100.00;94843.81;5065891;28;20218;-74
2022/01/07 00:38:09;;;;;;;9.20;5.40;;;;;;;-2.38;100.00;94843.22;5092502;28;20535;-73
2022/01/07 00:40:34;;;;;;;7.23;4.93;;;;;;;-2.54;100.00;94828.25;5088688;28;20542;-74
2022/01/07 00:43:00;;;;;;;7.43;4.67;;;;;;;-2.62;100.00;94824.03;5051320;28;20588;-74
2022/01/07 00:45:26;;;;;;;9.57;5.40;;;;;;;-2.47;100.00;94816.81;5052647;28;20789;-74
2022/01/07 00:47:53;;;;;;;12.87;6.07;;;;;;;-2.48;100.00;94826.75;5065667;28;20197;-74
2022/01/07 00:50:21;;;;;;;8.60;4.90;;;;;;;-2.10;100.00;94821.91;5070503;28;20416;-74
2022/01/07 00:52:48;;;;;;;7.77;4.60;;;;;;;-2.10;100.00;94835.28;5059326;28;20229;-74
2022/01/07 00:55:15;;;;;;;11.07;5.87;;;;;;;-1.89;100.00;94833.44;5063407;28;20312;-73
2022/01/07 00:57:41;;;;;;;10.93;6.43;;;;;;;-1.83;100.00;94807.81;5050628;28;20190;-74
2022/01/07 01:00:10;;;;;;;15.97;6.27;;;;;;;-1.70;100.00;94829.66;5067669;28;20309;-74
2022/01/07 01:02:36;;;;;;;13.97;6.97;;;;;;;-1.70;100.00;94810.91;5066404;28;20201;-73
2022/01/07 01:05:05;;;;;;;10.27;6.07;;;;;;;-1.87;100.00;94817.78;5079354;28;20264;-74
2022/01/07 01:07:31;;;;;;;11.97;6.57;;;;;;;-2.03;100.00;94805.88;5070215;28;20198;-73
2022/01/07 01:09:56;;;;;;;10.57;6.10;;;;;;;-1.98;100.00;94819.66;5054158;28;20630;-73
2022/01/07 01:12:22;;;;;;;9.17;5.60;;;;;;;-2.03;100.00;94821.91;5071323;28;20650;-73
2022/01/07 01:14:48;;;;;;;9.00;5.53;;;;;;;-1.98;100.00;94821.56;5050609;28;20636;-73
2022/01/07 01:17:13;;;;;;;9.17;5.53;;;;;;;-2.16;100.00;94812.72;5060415;28;20571;-74
2022/01/07 01:19:39;;;;;;;8.30;5.70;;;;;;;-2.27;100.00;94809.25;5051090;28;20543;-73
2022/01/07 01:22:05;;;;;;;8.43;5.57;;;;;;;-2.15;100.00;94811.56;5063259;28;20269;-73
2022/01/07 01:24:31;;;;;;;8.83;5.07;;;;;;;-2.22;100.00;94809.63;5057535;28;20302;-74
2022/01/07 01:26:57;;;;;;;8.07;5.20;;;;;;;-2.31;100.00;94811.16;5069937;28;20242;-74
2022/01/07 01:29:23;;;;;;;9.10;6.27;;;;;;;-2.39;100.00;94810.34;5091399;28;20553;-73
2022/01/07 01:31:49;;;;;;;9.27;5.77;;;;;;;-2.26;100.00;94814.22;5066672;28;20595;-73
2022/01/07 01:34:15;;;;;;;7.83;5.53;;;;;;;-2.61;100.00;94809.50;5080864;28;20190;-73
2022/01/07 01:36:41;;;;;;;9.07;5.27;;;;;;;-2.81;100.00;94818.19;5059340;28;20201;-73
2022/01/07 01:39:08;;;;;;;7.57;5.30;;;;;;;-2.73;100.00;94803.72;5063590;28;20190;-74
2022/01/07 01:41:34;;;;;;;12.27;5.80;;;;;;;-2.73;100.00;94807.16;5049816;28;20201;-75
2022/01/07 01:44:00;;;;;;;9.37;4.67;;;;;;;-2.65;100.00;94805.28;5083625;28;20185;-73
2022/01/07 01:46:26;;;;;;;15.07;6.00;;;;;;;-2.70;100.00;94794.97;5068628;28;20218;-73
2022/01/07 01:48:52;;;;;;;9.27;6.00;;;;;;;-2.76;100.00;94807.13;5052146;28;20277;-73
2022/01/07 01:51:18;;;;;;;10.00;5.87;;;;;;;-2.98;100.00;94782.22;5051013;28;20273;-74
2022/01/07 01:53:44;;;;;;;14.87;5.70;;;;;;;-2.88;100.00;94796.75;5066018;28;20220;-74
2022/01/07 01:56:10;;;;;;;9.77;6.47;;;;;;;-2.88;100.00;94789.53;5066116;28;20280;-73
2022/01/07 01:58:36;;;;;;;11.10;5.80;;;;;;;-2.74;100.00;94778.13;5060126;28;20280;-73
2022/01/07 02:01:02;;;;;;;14.03;6.23;;;;;;;-2.64;100.00;94772.06;5052436;28;20224;-74
2022/01/07 02:03:27;;;;;;;8.13;5.63;;;;;;;-2.64;100.00;94780.09;5049110;28;20200;-73
2022/01/07 02:05:54;;;;;;;7.07;4.40;;;;;;;-2.75;100.00;94761.34;5053540;28;20202;-73
2022/01/07 02:08:20;;;;;;;7.03;4.10;;;;;;;-2.52;100.00;94774.41;5070001;28;20319;-73
2022/01/07 02:10:45;;;;;;;4.87;3.80;;;;;;;-2.56;100.00;94769.06;5054344;28;20315;-73
2022/01/07 02:13:14;;;;;;;6.10;3.20;;;;;;;-2.57;100.00;94772.09;5069683;28;20201;-73
2022/01/07 02:15:41;;;;;;;7.63;3.50;;;;;;;-2.66;100.00;94755.63;5075663;28;20221;-73
2022/01/07 02:18:07;;;;;;;5.40;3.07;;;;;;;-2.70;100.00;94774.34;5069259;28;20201;-74
2022/01/07 02:20:33;;;;;;;7.07;4.20;;;;;;;-2.63;100.00;94768.28;5050862;28;20182;-74
2022/01/07 02:23:00;;;;;;;8.10;4.93;;;;;;;-2.82;100.00;94763.97;5059303;28;20282;-73
2022/01/07 02:25:27;;;;;;;10.13;5.50;;;;;;;-2.91;100.00;94774.25;5055101;28;20217;-73
2022/01/07 02:27:54;;;;;;;8.97;5.73;;;;;;;-3.01;100.00;94780.31;5051591;28;20216;-73
2022/01/07 02:30:23;;;;;;;11.77;5.83;;;;;;;-2.87;100.00;94772.34;5071181;28;20201;-73
2022/01/07 02:32:49;;;;;;;10.00;5.43;;;;;;;-2.78;100.00;94770.09;5081854;28;20192;-73
2022/01/07 02:35:17;;;;;;;13.50;6.13;;;;;;;-3.20;100.00;94763.78;5074940;28;20217;-73
2022/01/07 02:37:42;;;;;;;13.10;6.30;;;;;;;-3.48;100.00;94756.38;5044606;28;20198;-73
2022/01/07 02:40:09;;;;;;;9.17;6.20;;;;;;;-3.37;100.00;94762.53;5056917;28;20225;-73
2022/01/07 02:42:35;;;;;;;9.87;6.10;;;;;;;-3.38;100.00;94755.69;5069382;28;20202;-73
2022/01/07 02:45:02;;;;;;;12.70;5.43;;;;;;;-3.40;100.00;94755.28;5054144;28;20202;-73
2022/01/07 02:47:34;;;;;;;10.10;5.00;;;;;;;-3.55;100.00;94769.66;5077710;28;20564;-73
2022/01/07 02:50:05;;;;;;;13.63;4.93;;;;;;;-3.52;100.00;94746.78;5063162;28;20270;-73
2022/01/07 02:52:31;;;;;;;12.63;5.20;;;;;;;-3.75;100.00;94768.38;5050249;28;20202;-73
2022/01/07 02:54:57;;;;;;;10.83;6.07;;;;;;;-3.53;100.00;94767.41;5050842;28;20233;-73
2022/01/07 02:57:23;;;;;;;10.47;5.50;;;;;;;-3.42;100.00;94768.22;5055685;28;20197;-73
2022/01/07 02:59:49;;;;;;;8.00;5.87;;;;;;;-3.56;100.00;94752.09;5063748;28;20190;-74
2022/01/07 03:02:17;;;;;;;9.30;5.20;;;;;;;-3.72;100.00;94755.03;5044519;28;20198;-74
2022/01/07 03:04:43;;;;;;;7.70;5.10;;;;;;;-3.76;100.00;94750.81;5066215;28;20676;-74
2022/01/07 03:07:09;;;;;;;11.03;5.43;;;;;;;-4.42;100.00;94754.41;5066920;28;20221;-74
2022/01/07 03:09:35;;;;;;;8.80;4.90;;;;;;;-4.41;100.00;94749.88;5069672;28;20592;-74
2022/01/07 03:12:00;;;;;;;11.80;5.80;;;;;;;-3.93;100.00;94752.22;5068856;28;20195;-74
2022/01/07 03:14:27;;;;;;;9.10;5.60;;;;;;;-3.76;100.00;94746.25;5062733;28;20193;-74
2022/01/07 03:16:53;;;;;;;9.67;6.00;;;;;;;-3.74;100.00;94735.22;5044846;28;20687;-73
2022/01/07 03:19:18;;;;;;;11.20;6.47;;;;;;;-3.87;100.00;94741.97;5046439;28;20197;-73
2022/01/07 03:21:44;;;;;;;8.60;6.10;;;;;;;-3.93;100.00;94738.88;5059301;28;20662;-73
2022/01/07 03:24:09;;;;;;;10.17;5.17;;;;;;;-4.14;100.00;94740.59;5049006;28;20663;-73
2022/01/07 03:26:35;;;;;;;9.40;5.73;;;;;;;-4.28;100.00;94743.13;5042984;28;20201;-73
2022/01/07 03:29:01;;;;;;;9.93;5.40;;;;;;;-4.17;100.00;94744.75;5072689;28;20659;-73
2022/01/07 03:31:26;;;;;;;8.73;5.10;;;;;;;-4.17;100.00;94738.66;5063793;28;20195;-74
2022/01/07 03:33:52;;;;;;;6.37;5.23;;;;;;;-4.36;100.00;94734.28;5080026;28;20652;-74
2022/01/07 03:36:18;;;;;;;7.63;5.23;;;;;;;-4.51;100.00;94724.63;5072914;28;20706;-74
2022/01/07 03:38:44;;;;;;;9.53;5.77;;;;;;;-4.29;100.00;94736.25;5054442;28;20656;-74
2022/01/07 03:41:09;;;;;;;6.40;4.83;;;;;;;-4.40;100.00;94714.06;5051501;28;20623;-73
2022/01/07 03:43:35;;;;;;;6.13;5.47;;;;;;;-4.05;100.00;94715.16;5089442;28;20841;-74
2022/01/07 03:46:00;;;;;;;6.73;5.00;;;;;;;-4.10;100.00;94715.50;5042446;28;20363;-74
2022/01/07 03:48:26;;;;;;;7.33;5.37;;;;;;;-4.62;100.00;94718.44;5045236;28;20193;-73
2022/01/07 03:50:52;;;;;;;7.43;5.30;;;;;;;-4.71;100.00;94725.16;5061426;28;20184;-73
2022/01/07 03:53:17;;;;;;;5.73;4.50;;;;;;;-4.59;100.00;94733.69;5076696;28;20260;-73
2022/01/07 03:55:43;;;;;;;7.23;4.83;;;;;;;-4.85;100.00;94738.34;5073606;28;20253;-73
2022/01/07 03:58:09;;;;;;;7.30;5.10;;;;;;;-4.76;100.00;94734.25;5070581;28;20216;-73
2022/01/07 04:00:38;;;;;;;7.43;5.33;;;;;;;-4.50;100.00;94714.75;5064856;28;20194;-73
2022/01/07 04:03:07;;;;;;;6.90;5.10;;;;;;;-4.19;100.00;94720.38;5078689;28;20189;-73
2022/01/07 04:05:33;;;;;;;8.33;5.50;;;;;;;-4.18;100.00;94729.13;5082264;28;20282;-73
2022/01/07 04:07:59;;;;;;;6.27;4.83;;;;;;;-4.38;100.00;94722.47;5070558;28;20197;-73
2022/01/07 04:10:25;;;;;;;5.43;4.80;;;;;;;-4.21;100.00;94719.97;5073031;28;20277;-73
2022/01/07 04:12:51;;;;;;;6.10;4.70;;;;;;;-4.19;100.00;94722.28;5072017;28;20200;-73
2022/01/07 04:15:17;;;;;;;7.80;5.47;;;;;;;-3.91;100.00;94727.84;5067705;28;20222;-73
2022/01/07 04:17:47;;;;;;;8.40;5.07;;;;;;;-3.88;100.00;94727.09;5063067;28;20249;-73
2022/01/07 04:20:16;;;;;;;7.97;6.37;;;;;;;-3.65;100.00;94714.31;5077987;28;20197;-73
2022/01/07 04:22:42;;;;;;;9.27;6.20;;;;;;;-3.73;100.00;94716.16;5084950;28;20193;-74
2022/01/07 04:25:12;;;;;;;7.53;6.13;;;;;;;-3.76;100.00;94716.91;5085743;28;20217;-73
2022/01/07 04:27:39;;;;;;;8.90;5.87;;;;;;;-3.68;100.00;94720.38;5072089;28;20186;-73
2022/01/07 04:30:06;;;;;;;11.23;5.57;;;;;;;-3.64;100.00;94718.50;5058555;28;20194;-73
2022/01/07 04:32:31;;;;;;;7.33;5.83;;;;;;;-3.41;100.00;94720.94;5050480;28;20197;-73
2022/01/07 04:34:57;;;;;;;11.30;6.20;;;;;;;-3.38;100.00;94730.88;5064867;28;20212;-73
2022/01/07 04:37:23;;;;;;;8.47;5.70;;;;;;;-3.33;100.00;94733.19;5069956;28;20252;-73
2022/01/07 04:39:48;;;;;;;6.10;5.20;;;;;;;-3.55;100.00;94728.88;5035965;28;20272;-73
2022/01/07 04:42:14;;;;;;;6.70;5.30;;;;;;;-3.28;100.00;94730.94;5061892;28;20288;-73
2022/01/07 04:44:41;;;;;;;7.73;5.63;;;;;;;-3.39;100.00;94722.09;5071707;28;20217;-73
2022/01/07 04:47:08;;;;;;;6.73;5.33;;;;;;;-3.54;100.00;94733.03;5069614;28;20660;-74
2022/01/07 04:49:34;;;;;;;8.73;5.73;;;;;;;-3.45;100.00;94741.50;5066791;28;20214;-73
2022/01/07 04:52:00;;;;;;;9.27;5.17;;;;;;;-3.31;100.00;94731.66;5064780;28;20557;-74
2022/01/07 04:54:25;;;;;;;9.07;5.63;;;;;;;-3.20;100.00;94726.38;5071821;28;20682;-74
2022/01/07 04:56:51;;;;;;;7.30;5.30;;;;;;;-3.29;100.00;94732.06;5079443;28;20781;-74
2022/01/07 04:59:16;;;;;;;5.43;4.80;;;;;;;-3.43;100.00;94729.34;5072909;28;20185;-73
2022/01/07 05:01:42;;;;;;;6.97;5.47;;;;;;;-3.17;100.00;94725.66;5061442;28;20567;-74
2022/01/07 05:04:08;;;;;;;8.87;5.30;;;;;;;-3.48;100.00;94737.69;5082095;28;20654;-73
2022/01/07 05:06:47;;;;;;;5.73;4.57;;;;;;;-3.60;100.00;94723.88;5055307;28;20840;-73
2022/01/07 05:09:16;;;;;;;5.77;4.70;;;;;;;-3.34;100.00;94734.34;5067650;28;20185;-73
2022/01/07 05:11:42;;;;;;;8.27;4.60;;;;;;;-3.21;100.00;94736.31;5066141;28;20187;-73
2022/01/07 05:14:08;;;;;;;5.07;4.37;;;;;;;-3.45;100.00;94723.59;5064794;28;20194;-73
2022/01/07 05:16:33;;;;;;;5.73;4.30;;;;;;;-3.80;100.00;94720.66;5067553;28;20247;-73
2022/01/07 05:18:59;;;;;;;4.67;3.80;;;;;;;-3.85;100.00;94732.47;5050802;28;20194;-73
2022/01/07 05:21:24;;;;;;;5.00;3.77;;;;;;;-4.23;100.00;94726.81;5051148;28;20196;-73
2022/01/07 05:23:50;;;;;;;4.30;3.40;;;;;;;-4.25;100.00;94729.06;5058991;28;20195;-73
2022/01/07 05:26:16;;;;;;;5.80;3.63;;;;;;;-4.34;100.00;94742.69;5045961;28;20326;-73
2022/01/07 05:28:41;;;;;;;6.37;3.77;;;;;;;-4.03;100.00;94722.78;5070351;28;20423;-73
2022/01/07 05:31:07;;;;;;;5.57;4.13;;;;;;;-3.79;100.00;94755.00;5073326;28;20240;-73
2022/01/07 05:33:33;;;;;;;5.97;4.33;;;;;;;-3.89;100.00;94733.56;5068090;28;20206;-73
2022/01/07 05:35:58;;;;;;;5.53;4.13;;;;;;;-3.67;100.00;94755.84;5062410;28;20221;-73
2022/01/07 05:38:24;;;;;;;5.53;4.10;;;;;;;-4.00;100.00;94744.16;5057798;28;20190;-73
2022/01/07 05:40:49;;;;;;;5.03;3.87;;;;;;;-4.21;100.00;94745.88;5072012;28;20200;-73
2022/01/07 05:43:15;;;;;;;4.77;3.67;;;;;;;-4.35;100.00;94740.41;5061294;28;20223;-73
2022/01/07 05:45:44;;;;;;;4.30;3.20;;;;;;;-4.36;100.00;94739.63;5060734;28;20277;-73
2022/01/07 05:48:10;;;;;;;9.60;3.97;;;;;;;-4.45;100.00;94736.50;5062425;28;20194;-73
2022/01/07 05:50:36;;;;;;;5.27;3.80;;;;;;;-4.42;100.00;94738.44;5067624;28;20190;-73
2022/01/07 05:53:01;;;;;;;5.10;3.60;;;;;;;-4.30;100.00;94740.84;5068169;28;20193;-73
2022/01/07 05:55:28;;;;;;;3.93;3.37;;;;;;;-4.19;100.00;94725.69;5067935;28;20205;-73
2022/01/07 05:57:54;;;;;;;6.67;3.60;;;;;;;-4.36;100.00;94736.22;5055020;28;20714;-73
2022/01/07 06:00:19;;;;;;;4.13;3.67;;;;;;;-4.15;100.00;94747.06;5063142;28;20198;-73
2022/01/07 06:02:45;;;;;;;6.57;3.47;;;;;;;-4.12;100.00;94739.09;5064515;28;20239;-73
2022/01/07 06:05:11;;;;;;;4.43;3.50;;;;;;;-4.08;100.00;94742.56;5062140;28;20232;-73
2022/01/07 06:07:37;;;;;;;5.63;3.13;;;;;;;-4.15;100.00;94739.84;5054064;28;20559;-73
2022/01/07 06:10:05;;;;;;;5.10;3.60;;;;;;;-4.41;100.00;94734.63;5071703;28;20250;-73
2022/01/07 06:12:30;;;;;;;4.57;3.53;;;;;;;-4.52;100.00;94720.44;5053689;28;20186;-73
2022/01/07 06:14:57;;;;;;;4.47;3.57;;;;;;;-4.45;100.00;94735.72;5067879;28;20739;-73
2022/01/07 06:17:23;;;;;;;4.93;2.83;;;;;;;-4.71;100.00;94738.47;5061891;28;20206;-73
2022/01/07 06:19:48;;;;;;;3.60;2.80;;;;;;;-5.08;100.00;94738.44;5071536;28;20564;-73
2022/01/07 06:22:14;;;;;;;5.47;2.90;;;;;;;-4.74;100.00;94737.34;5071317;28;20648;-74
2022/01/07 06:24:40;;;;;;;6.13;3.13;;;;;;;-4.78;100.00;94741.84;5059187;28;20616;-74
2022/01/07 06:27:09;;;;;;;4.43;3.03;;;;;;;-4.66;100.00;94740.81;5071019;28;20554;-73
2022/01/07 06:29:35;;;;;;;4.37;3.27;;;;;;;-4.49;100.00;94738.34;5050630;28;20258;-74
2022/01/07 06:32:01;;;;;;;5.43;3.07;;;;;;;-4.55;100.00;94744.38;5069945;28;20197;-74
2022/01/07 06:34:26;;;;;;;3.13;2.60;;;;;;;-4.79;100.00;94740.31;5063292;28;20198;-74
2022/01/07 06:36:52;;;;;;;5.13;2.90;;;;;;;-4.90;100.00;94730.69;5065020;28;20619;-74
2022/01/07 06:39:19;;;;;;;3.33;2.83;;;;;;;-4.72;100.00;94739.63;5068169;28;20276;-73
2022/01/07 06:41:49;;;;;;;3.37;2.93;;;;;;;-4.70;100.00;94740.78;5078089;28;20258;-73
2022/01/07 06:44:15;;;;;;;5.70;2.80;;;;;;;-4.95;100.00;94743.19;5059899;28;20202;-73
2022/01/07 06:46:40;;;;;;;4.03;2.60;;;;;;;-4.88;100.00;94744.38;5052619;28;20220;-73
2022/01/07 06:49:07;;;;;;;4.03;2.40;;;;;;;-4.92;100.00;94745.09;5064124;28;20628;-73
2022/01/07 06:51:33;;;;;;;3.93;2.83;;;;;;;-4.81;100.00;94747.13;5069641;28;20202;-73
2022/01/07 06:53:59;;;;;;;5.23;2.90;;;;;;;-4.62;100.00;94741.63;5063484;28;20190;-73
2022/01/07 06:56:24;;;;;;;4.87;3.20;;;;;;;-4.60;100.00;94740.16;5069536;28;20531;-73
2022/01/07 06:58:50;;;;;;;4.80;3.00;;;;;;;-4.79;100.00;94742.97;5073002;28;20178;-73
2022/01/07 07:01:16;;;;;;;3.20;2.90;;;;;;;-4.74;100.00;94737.34;5069739;28;20278;-73
2022/01/07 07:03:41;;;;;;;3.43;2.30;;;;;;;-4.64;100.00;94736.69;5072141;28;20204;-73
2022/01/07 07:06:08;;;;;;;3.53;2.53;;;;;;;-5.06;100.00;94726.28;5073249;28;20217;-74
2022/01/07 07:08:34;;;;;;;3.27;2.30;;;;;;;-5.34;100.00;94739.25;5072593;28;20247;-73
2022/01/07 07:10:59;;;;;;;2.60;2.40;;;;;;;-5.28;100.00;94727.16;5058356;28;20285;-73
2022/01/07 07:13:25;;;;;;;3.83;2.50;;;;;;;-5.22;100.00;94732.94;5038517;28;20186;-73
2022/01/07 07:15:51;;;;;;;3.83;2.33;;;;;;;-5.23;100.00;94742.06;5071882;28;20245;-73
2022/01/07 07:18:17;;;;;;;2.63;2.30;;;;;;;-5.01;100.00;94736.66;5074664;28;20189;-73
2022/01/07 07:20:43;;;;;;;2.47;2.00;;;;;;;-4.82;100.00;94741.06;5055367;28;20220;-73
2022/01/07 07:23:09;;;;;;;2.30;2.00;;;;;;;-4.57;100.00;94736.75;5074259;28;20205;-73
2022/01/07 07:25:35;;;;;;;3.83;1.80;;;;;;;-4.44;100.00;94750.56;5073528;28;20216;-73
2022/01/07 07:28:01;;;;;;;1.70;1.60;;;;;;;-4.46;100.00;94755.53;5072699;28;20190;-73
2022/01/07 07:30:34;;;;;;;2.57;2.20;;;;;;;-4.30;100.00;94743.50;5073491;28;20221;-74
2022/01/07 07:33:29;;;;;;;3.50;2.37;;;;;;;-4.14;100.00;94741.34;5072673;28;20189;-73
2022/01/07 07:38:11;;;;;;;4.27;2.70;;;;;;;-4.48;100.00;94739.13;5081063;28;20632;-73
2022/01/07 07:40:36;;;;;;;3.43;2.50;;;;;;;-4.49;100.00;94751.69;5089504;28;20204;-73
2022/01/07 07:43:02;;;;;;;3.70;2.27;;;;;;;-4.24;100.00;94751.94;5064580;28;20191;-73
2022/01/07 07:45:29;;;;;;;3.67;2.40;;;;;;;-4.12;100.00;94743.66;5066477;28;20691;-73
2022/01/07 07:47:55;;;;;;;3.20;2.80;;;;;;;-3.92;100.00;94758.31;5071883;28;20190;-73
2022/01/07 07:50:21;;;;;;;4.57;2.80;;;;;;;-3.87;100.00;94755.31;5073038;28;20193;-73
2022/01/07 07:52:46;;;;;;;8.53;5.90;;;;;;;-3.78;100.00;94756.53;5072865;28;20190;-73
2022/01/07 07:55:12;;;;;;;13.47;9.80;;;;;;;-3.82;100.00;94738.97;5068892;28;20280;-73
2022/01/07 07:57:38;;;;;;;13.40;10.67;;;;;;;-3.87;100.00;94747.31;5063828;28;20197;-73
2022/01/07 08:00:05;;;;;;;12.23;7.80;;;;;;;-3.46;100.00;94756.00;5066737;28;20277;-73
2022/01/07 08:02:39;;;;;;;3.60;2.67;;;;;;;-3.60;100.00;94747.88;5070290;28;20190;-73
2022/01/07 08:05:05;;;;;;;4.37;3.03;;;;;;;-3.37;100.00;94748.41;5039822;28;20249;-73
2022/01/07 08:07:30;;;;;;;3.70;2.87;;;;;;;-3.54;100.00;94743.72;5082313;28;20260;-73
2022/01/07 08:09:56;;;;;;;5.10;3.10;;;;;;;-3.44;100.00;94741.13;5080914;28;20292;-73
2022/01/07 08:12:29;;;;;;;5.10;2.50;;;;;;;-3.16;100.00;94743.22;5089690;28;20200;-73
2022/01/07 08:17:38;;;;;;;3.80;3.00;;;;;;;-2.85;100.00;94755.97;5071030;28;20596;-73
2022/01/07 08:20:05;;;;;;;3.90;3.03;;;;;;;-2.71;100.00;94753.34;5072300;28;20196;-73
2022/01/07 08:22:31;;;;;;;6.77;4.10;;;;;;;-2.56;100.00;94760.25;5073629;28;20490;-73
2022/01/07 08:24:57;;;;;;;6.03;4.57;;;;;;;-2.72;100.00;94755.25;5062261;28;20210;-73
2022/01/07 08:27:22;;;;;;;8.87;4.50;;;;;;;-2.60;100.00;94762.16;5064421;28;20189;-73
2022/01/07 08:29:50;;;;;;;4.03;3.07;;;;;;;-2.50;100.00;94743.50;5055614;28;20186;-73
2022/01/07 08:35:00;;;;;;;3.90;3.00;;;;;;;-2.68;100.00;94748.00;5070541;28;20238;-73
2022/01/07 08:37:27;;;;;;;4.90;2.50;;;;;;;-2.62;100.00;94737.72;5058382;28;20272;-73
2022/01/07 08:39:55;;;;;;;4.80;2.87;;;;;;;-2.45;100.00;94729.00;5072068;28;20327;-73
2022/01/07 08:42:25;;;;;;;2.77;2.40;;;;;;;-2.27;100.00;94743.16;5060807;28;20194;-74
2022/01/07 08:44:52;;;;;;;3.40;2.60;;;;;;;-2.20;100.00;94755.78;5072377;28;20234;-73
2022/01/07 08:47:23;;;;;;;3.97;2.40;;;;;;;-2.29;100.00;94740.09;5069648;28;20278;-73
2022/01/07 08:49:51;;;;;;;3.93;2.13;;;;;;;-2.02;100.00;94738.59;5055622;28;20237;-73
2022/01/07 08:52:17;;;;;;;4.43;2.63;;;;;;;-1.94;100.00;94756.22;5071552;28;20196;-74
2022/01/07 08:54:46;;;;;;;5.03;3.13;;;;;;;-1.79;100.00;94740.91;5071121;28;20584;-73
2022/01/07 08:57:12;;;;;;;5.10;3.80;;;;;;;-1.54;100.00;94739.78;5068527;28;20193;-73
2022/01/07 08:59:37;;;;;;;5.50;3.80;;;;;;;-1.58;100.00;94755.06;5071186;28;20551;-73
2022/01/07 09:02:03;;;;;;;5.70;3.00;;;;;;;-1.45;100.00;94739.38;5034680;28;20560;-73
2022/01/07 09:04:29;;;;;;;3.70;2.80;;;;;;;-1.36;100.00;94737.81;5068464;28;20538;-73
2022/01/07 09:06:55;;;;;;;3.43;2.77;;;;;;;-1.32;100.00;94741.28;5056400;28;20189;-73
2022/01/07 09:09:20;;;;;;;4.07;2.90;;;;;;;-1.41;100.00;94737.47;5069907;28;20333;-73
2022/01/07 09:11:47;;;;;;;4.13;3.40;;;;;;;-1.28;100.00;94741.28;5060678;28;20275;-73
2022/01/07 09:14:13;;;;;;;3.90;3.33;;;;;;;-1.17;100.00;94738.59;5068758;28;20189;-73
2022/01/07 09:16:38;;;;;;;4.87;3.80;;;;;;;-1.15;100.00;94742.38;5066690;28;20236;-73
2022/01/07 09:19:04;;;;;;;4.40;3.30;;;;;;;-0.98;100.00;94725.50;5072909;28;20235;-73
2022/01/07 09:21:30;;;;;;;4.23;2.90;;;;;;;-1.11;100.00;94740.47;5054645;28;20216;-73
2022/01/07 09:23:56;;;;;;;3.27;2.30;;;;;;;-1.04;100.00;94737.00;5067235;28;20229;-73
2022/01/07 09:26:22;;;;;;;4.30;2.70;;;;;;;-1.18;99.69;94737.03;5066852;28;20213;-73
2022/01/07 09:28:47;;;;;;;3.23;2.27;;;;;;;-1.24;100.00;94729.38;5054819;28;20196;-73
2022/01/07 09:31:14;;;;;;;3.50;2.40;;;;;;;-0.99;100.00;94729.34;5066299;28;20217;-73
2022/01/07 09:33:40;;;;;;;5.73;2.23;;;;;;;-0.83;98.81;94726.97;5070307;28;20189;-73
2022/01/07 09:36:05;;;;;;;2.87;2.00;;;;;;;-0.73;98.66;94731.53;5071399;28;20209;-73
2022/01/07 09:38:31;;;;;;;2.90;1.97;;;;;;;-0.57;98.24;94721.13;5052409;28;20200;-73
2022/01/07 09:40:57;;;;;;;2.70;2.40;;;;;;;-0.65;96.27;94721.56;5070260;28;20204;-73
2022/01/07 09:43:23;;;;;;;5.17;2.77;;;;;;;1.66;100.00;94718.81;5062802;28;20222;-73
2022/01/07 09:45:50;;;;;;;2.37;1.73;;;;;;;1.52;100.00;94710.91;5065453;28;20297;-73
2022/01/07 09:48:16;;;;;;;3.23;2.50;;;;;;;1.89;92.40;94708.09;5045297;28;20187;-73
2022/01/07 09:50:45;;;;;;;2.90;2.03;;;;;;;1.72;89.27;94706.41;5062761;28;20201;-73
2022/01/07 09:53:13;;;;;;;2.27;1.60;;;;;;;1.03;78.87;94704.19;5052780;28;20199;-73
2022/01/07 09:55:40;;;;;;;1.90;1.50;;;;;;;1.48;82.11;94696.72;5067428;28;20233;-73
2022/01/07 09:58:07;;;;;;;4.80;1.87;;;;;;;2.00;84.73;94716.03;5060685;28;20260;-73
2022/01/07 10:00:38;;;;;;;1.80;1.17;;;;;;;1.10;79.16;94711.41;5056865;28;20209;-73
2022/01/07 10:03:07;;;;;;;1.07;0.90;;;;;;;0.54;79.55;94709.28;5049151;28;20205;-73
2022/01/07 10:05:42;;;;;;;0.80;0.70;;;;;;;0.09;80.53;94711.16;5048982;28;20214;-73
2022/01/07 10:08:20;;;;;;;2.70;0.90;;;;;;;-0.08;81.09;94704.75;5074599;28;20193;-73
2022/01/07 10:10:46;;;;;;;1.63;1.00;;;;;;;-0.14;81.77;94698.28;5052622;28;20664;-73
2022/01/07 10:13:12;;;;;;;2.60;0.60;;;;;;;-0.26;82.52;94696.06;5061749;28;20189;-73
2022/01/07 10:15:40;;;;;;;0.97;0.80;;;;;;;-0.47;83.75;94700.78;5065770;28;20218;-73
2022/01/07 10:18:08;;;;;;;0.87;0.80;;;;;;;-0.65;84.88;94695.53;5066832;28;20570;-73
2022/01/07 10:20:40;;;;;;;2.60;0.93;;;;;;;-0.62;85.69;94684.00;5067721;28;20277;-72
2022/01/07 10:23:23;;;;;;;0.80;0.80;;;;;;;-0.60;84.90;94692.44;5041476;28;20612;-72
2022/01/07 10:25:53;;;;;;;1.00;0.87;;;;;;;-0.65;83.90;94687.47;5051276;28;20231;-72
2022/01/07 10:28:19;;;;;;;4.77;1.47;;;;;;;-0.71;84.84;94685.59;5058421;28;20188;-73
2022/01/07 10:30:46;;;;;;;2.33;1.30;;;;;;;-0.41;83.05;94689.25;5067236;28;20198;-73
2022/01/07 10:33:20;;;;;;;3.70;0.70;;;;;;;-0.27;80.18;94675.75;5066533;28;20204;-73
2022/01/07 10:35:47;;;;;;;3.30;1.03;;;;;;;-0.23;82.91;94684.56;5064403;28;20228;-73
2022/01/07 10:38:22;;;;;;;0.90;0.80;;;;;;;-0.30;80.32;94663.13;5056015;28;20194;-73
2022/01/07 10:40:49;;;;;;;3.33;1.60;;;;;;;-0.03;80.57;94655.25;5073483;28;20661;-73
2022/01/07 10:43:30;;;;;;;2.83;1.07;;;;;;;-0.04;77.99;94653.75;5063654;28;20200;-73
2022/01/07 10:45:58;;;;;;;0.80;0.70;;;;;;;-0.07;78.34;94641.88;5048027;28;20671;-72
2022/01/07 10:48:40;;;;;;;0.93;0.70;;;;;;;0.09;78.67;94641.38;5074530;28;20194;-73
2022/01/07 10:51:26;;;;;;;1.57;0.90;;;;;;;0.26;76.99;94639.69;5055375;28;20190;-73
2022/01/07 10:53:57;;;;;;;5.23;0.73;;;;;;;0.50;77.98;94642.16;5053722;28;20236;-73
2022/01/07 10:56:32;;;;;;;1.70;1.37;;;;;;;0.68;76.66;94633.91;5064885;28;20796;-73
2022/01/07 10:58:59;;;;;;;1.93;1.20;;;;;;;0.73;77.38;94631.53;5053709;28;20182;-73
2022/01/07 11:01:48;;;;;;;1.97;1.20;;;;;;;0.77;79.04;94623.44;5053846;28;20547;-73
2022/01/07 11:04:26;;;;;;;1.80;1.07;;;;;;;0.98;80.50;94625.88;5066352;28;20797;-73
2022/01/07 11:06:52;;;;;;;3.63;1.73;;;;;;;1.03;81.81;94620.84;5051604;28;20177;-73
2022/01/07 11:09:19;;;;;;;2.07;1.03;;;;;;;0.92;79.92;94616.72;5072068;28;20265;-73
2022/01/07 11:11:52;;;;;;;1.27;1.10;;;;;;;0.85;77.18;94622.94;5061561;28;20191;-73
2022/01/07 11:14:37;;;;;;;1.50;1.10;;;;;;;0.80;76.06;94623.38;5038063;28;20178;-73
2022/01/07 11:17:04;;;;;;;2.23;1.10;;;;;;;0.79;73.71;94607.66;5068036;28;20190;-73
2022/01/07 11:19:36;;;;;;;2.20;0.80;;;;;;;0.91;75.94;94613.28;5055178;28;20185;-73
2022/01/07 11:22:03;;;;;;;1.73;0.87;;;;;;;0.97;72.91;94608.97;5069657;28;20190;-73
2022/01/07 11:24:40;;;;;;;2.17;0.90;;;;;;;1.01;72.88;94614.31;5066666;28;20310;-74
2022/01/07 11:27:13;;;;;;;2.23;1.20;;;;;;;1.08;72.51;94603.47;5054268;28;20226;-73
2022/01/07 11:29:41;;;;;;;3.73;1.20;;;;;;;0.92;72.38;94606.75;5052985;28;20221;-73
2022/01/07 11:32:24;;;;;;;1.33;0.90;;;;;;;0.78;72.16;94611.53;5072261;28;20201;-73
2022/01/07 11:34:50;;;;;;;1.43;0.93;;;;;;;0.74;74.07;94592.00;5065132;28;20212;-73